テルアビブ / ベン・グリオン の空港の天気 - METARとTAF

ベン・グリオン国際空港(テルアビブ) ( LLBG / TLV ) - イスラエル ロード / テルアビブ
飛行場実況気象(Metar)
観測時間01/19 17:20 IST (01/19 15:20 UTC)
風向・風速北北東 3m/s
視程10km以上
天気現象
なし
気温15℃
湿度48%
気圧1019hPa
METARLLBG 191520Z 02006KT CAVOK 15/04 Q1019 NOSIG
過去の天気等 Google飛行場航空写真 Wunderground天気予報

過去48時間のMETAR

飛行場予報(TAF)
発表時間: 1/19 13:08 IST (1/19 11:08 UTC)
予報対象時間: 19日14時 IST ~ 20日14時 IST
風向・風速北北西 4m/s
視程10km以上
なし
19日16時 IST ~ 19日18時 IST に徐々に
風向・風速北東 3m/s
19日21時 IST ~ 19日23時 IST に徐々に
風向・風速東南東 3m/s
20日9時 IST ~ 20日11時 IST に徐々に
風向・風速西 3m/s
TAF LLBG 191108Z 1912/2012 34008KT CAVOK
BECMG 1914/1916 04006KT
BECMG 1919/1921 12005KT
BECMG 2007/2009 28006KT TX17/1912Z TN06/2004Z